createdAt,value
2018-09-24T00:01:27.828Z,101221.53
2018-09-24T00:06:25.211Z,101243.80
2018-09-24T00:11:28.025Z,101254.92
2018-09-24T00:16:25.463Z,101261.29
2018-09-24T00:21:22.831Z,101275.22
2018-09-24T00:26:20.209Z,101286.67
2018-09-24T00:31:17.571Z,101295.20
2018-09-24T00:36:14.932Z,101298.45
2018-09-24T00:41:17.178Z,101301.75
2018-09-24T00:46:14.895Z,101307.44
2018-09-24T00:51:12.259Z,101318.44
2018-09-24T00:56:09.651Z,101333.19
2018-09-24T01:01:07.031Z,101349.52
2018-09-24T01:06:04.440Z,101346.10
2018-09-24T01:11:05.815Z,101348.40
2018-09-24T01:16:03.286Z,101369.52
2018-09-24T01:21:01.286Z,101373.88
2018-09-24T01:25:58.684Z,101385.63
2018-09-24T01:30:56.103Z,101389.88
2018-09-24T01:35:53.513Z,101395.22
2018-09-24T01:40:51.446Z,101400.79
2018-09-24T01:45:48.872Z,101419.74
2018-09-24T01:50:46.329Z,101430.22
2018-09-24T01:55:48.598Z,101443.78
2018-09-24T02:00:45.971Z,101445.12
2018-09-24T02:05:43.340Z,101443.57
2018-09-24T02:10:40.722Z,101457.63
2018-09-24T02:15:38.099Z,101466.78
2018-09-24T02:20:44.072Z,101470.09
2018-09-24T02:25:41.500Z,101485.05
2018-09-24T02:30:38.919Z,101502.06
2018-09-24T02:35:36.404Z,101508.26
2018-09-24T02:40:33.851Z,101518.63
2018-09-24T02:45:31.268Z,101532.02
2018-09-24T02:50:35.478Z,101533.63
2018-09-24T02:55:32.871Z,101543.59
2018-09-24T03:00:30.288Z,101540.55
2018-09-24T03:05:27.714Z,101545.94
2018-09-24T03:10:25.129Z,101567.80
2018-09-24T03:15:22.546Z,101575.72
2018-09-24T03:20:21.252Z,101585.17
2018-09-24T03:25:19.248Z,101584.86
2018-09-24T03:30:16.715Z,101589.09
2018-09-24T03:35:14.137Z,101592.47
2018-09-24T03:40:11.588Z,101601.92
2018-09-24T03:45:09.008Z,101613.27
2018-09-24T03:50:06.439Z,101622.25
2018-09-24T03:55:03.896Z,101619.26
2018-09-24T04:00:01.383Z,101632.45
2018-09-24T04:05:04.351Z,101641.25
2018-09-24T04:10:07.421Z,101646.27
2018-09-24T04:15:10.388Z,101641.02
2018-09-24T04:20:13.415Z,101642.68
2018-09-24T04:25:16.431Z,101655.28
2018-09-24T04:30:19.536Z,101661.98
2018-09-24T04:35:22.524Z,101665.44
2018-09-24T04:40:25.736Z,101671.76
2018-09-24T04:45:28.752Z,101676.57
2018-09-24T04:50:31.737Z,101676.98
2018-09-24T04:55:34.635Z,101691.70
2018-09-24T05:00:37.765Z,101696.82
2018-09-24T05:05:40.676Z,101700.13
2018-09-24T05:10:43.703Z,101717.09
2018-09-24T05:15:46.628Z,101729.98
2018-09-24T05:20:49.699Z,101729.61
2018-09-24T05:25:53.600Z,101739.36
2018-09-24T05:30:56.710Z,101739.42
2018-09-24T05:35:59.766Z,101750.92
2018-09-24T05:41:03.705Z,101756.20
2018-09-24T05:46:06.876Z,101759.98
2018-09-24T05:51:10.176Z,101767.05
2018-09-24T05:56:13.123Z,101773.16
2018-09-24T06:01:16.214Z,101776.17
2018-09-24T06:06:19.209Z,101776.67
2018-09-24T06:11:27.487Z,101782.17
2018-09-24T06:16:30.631Z,101790.42
2018-09-24T06:21:33.676Z,101808.08
2018-09-24T06:26:36.836Z,101808.77
2018-09-24T06:31:39.947Z,101813.20
2018-09-24T06:36:42.984Z,101812.63
2018-09-24T06:41:55.588Z,101829.66
2018-09-24T06:46:58.655Z,101838.70
2018-09-24T06:52:01.633Z,101850.69
2018-09-24T06:57:04.711Z,101857.56
2018-09-24T07:02:07.828Z,101870.56
2018-09-24T07:07:11.022Z,101867.55
2018-09-24T07:12:14.787Z,101881.13
2018-09-24T07:17:17.819Z,101882.55
2018-09-24T07:22:20.903Z,101893.52
2018-09-24T07:27:23.992Z,101907.17
2018-09-24T07:32:27.020Z,101913.58
2018-09-24T07:37:29.952Z,101918.51
2018-09-24T07:42:33.088Z,101923.45
2018-09-24T07:47:36.202Z,101929.34
2018-09-24T07:52:39.364Z,101935.39
2018-09-24T07:57:42.392Z,101944.86
2018-09-24T08:02:47.805Z,101949.78
2018-09-24T08:07:52.189Z,101952.45
2018-09-24T08:12:55.369Z,101951.17
2018-09-24T08:17:58.250Z,101959.67
2018-09-24T08:23:01.356Z,101964.73
2018-09-24T08:28:04.317Z,101970.68
2018-09-24T08:33:07.444Z,101985.17
2018-09-24T08:38:10.727Z,101981.59
2018-09-24T08:43:13.839Z,101986.52
2018-09-24T08:48:16.859Z,101988.48
2018-09-24T08:53:20.555Z,102001.34
2018-09-24T08:58:23.498Z,102000.67
2018-09-24T09:03:26.611Z,101993.10
2018-09-24T09:08:29.662Z,101998.97
2018-09-24T09:13:39.508Z,102001.10
2018-09-24T09:18:42.633Z,102009.92
2018-09-24T09:23:46.336Z,101996.66
2018-09-24T09:28:50.396Z,102004.83
2018-09-24T09:33:53.554Z,102005.34
2018-09-24T09:38:56.662Z,102015.61
2018-09-24T09:44:00.671Z,102014.04
2018-09-24T09:49:03.684Z,102025.00
2018-09-24T09:54:06.689Z,102020.48
2018-09-24T09:59:09.836Z,102024.34
2018-09-24T10:04:13.951Z,102024.61
2018-09-24T10:09:16.937Z,102035.85
2018-09-24T10:14:20.068Z,102019.42
2018-09-24T10:19:23.228Z,102019.84
2018-09-24T10:24:26.580Z,102023.45
2018-09-24T10:29:29.643Z,102013.02
2018-09-24T10:34:32.731Z,102009.46
2018-09-24T10:39:35.775Z,102009.90
2018-09-24T10:44:38.795Z,102018.15
2018-09-24T10:49:41.763Z,102014.09
2018-09-24T10:54:45.311Z,102021.89
2018-09-24T10:59:48.315Z,102047.95
2018-09-24T11:04:51.373Z,102028.06
2018-09-24T11:09:54.475Z,102036.45
2018-09-24T11:14:57.684Z,102027.67
2018-09-24T11:20:00.683Z,102030.71
2018-09-24T11:25:03.799Z,102034.83
2018-09-24T11:30:06.932Z,102034.28
2018-09-24T11:35:10.172Z,102028.12
2018-09-24T11:40:13.251Z,102027.70
2018-09-24T11:45:16.372Z,102027.33
2018-09-24T11:50:19.575Z,102017.16
2018-09-24T11:55:22.723Z,102023.41
2018-09-24T12:00:25.592Z,102027.55
2018-09-24T12:05:28.623Z,102027.23
2018-09-24T12:10:31.647Z,102019.53
2018-09-24T12:15:34.636Z,102022.00
2018-09-24T12:20:37.861Z,102038.88
2018-09-24T12:25:40.840Z,102101.52
2018-09-24T12:30:43.814Z,102092.87
2018-09-24T12:35:46.915Z,102074.09
2018-09-24T12:40:49.868Z,102061.22
2018-09-24T12:45:52.899Z,102061.94
2018-09-24T12:50:58.494Z,102073.81
2018-09-24T12:56:01.612Z,102095.75
2018-09-24T13:01:05.140Z,102088.30
2018-09-24T13:07:11.621Z,102099.66
2018-09-24T13:12:15.559Z,102088.60
2018-09-24T13:17:18.523Z,102098.13
2018-09-24T13:22:21.568Z,102084.30
2018-09-24T13:27:24.742Z,102075.77
2018-09-24T13:32:27.895Z,102071.05
2018-09-24T13:37:30.940Z,102073.59
2018-09-24T13:42:35.405Z,102067.41
2018-09-24T13:47:38.436Z,102069.02
2018-09-24T13:52:41.450Z,102070.79
2018-09-24T13:57:44.487Z,102075.16
2018-09-24T14:02:47.698Z,102080.21
2018-09-24T14:07:50.838Z,102095.16
2018-09-24T14:12:54.854Z,102082.20
2018-09-24T14:17:58.170Z,102089.22
2018-09-24T14:23:01.434Z,102079.74
2018-09-24T14:28:14.062Z,102085.27
2018-09-24T14:33:17.247Z,102062.72
2018-09-24T14:38:20.519Z,102074.09
2018-09-24T14:43:23.538Z,102067.19
2018-09-24T14:48:26.878Z,102053.90
2018-09-24T14:53:31.107Z,102073.66
2018-09-24T14:58:35.718Z,102104.19
2018-09-24T15:03:43.528Z,102107.48
2018-09-24T15:08:48.513Z,102090.67
2018-09-24T15:13:51.805Z,102101.36
2018-09-24T15:18:56.130Z,102106.05
2018-09-24T15:24:01.012Z,102104.08
2018-09-24T15:29:06.656Z,102109.86
2018-09-24T15:34:10.868Z,102113.01
2018-09-24T15:39:15.427Z,102112.67
2018-09-24T15:44:19.032Z,102116.22
2018-09-24T15:49:22.263Z,102112.33
2018-09-24T15:59:41.314Z,102116.58
2018-09-24T16:04:44.236Z,102122.81
2018-09-24T16:09:48.204Z,102120.19
2018-09-24T16:14:52.498Z,102113.55
2018-09-24T16:19:55.888Z,102127.42
2018-09-24T16:25:00.048Z,102166.54
2018-09-24T16:30:05.475Z,102207.20
2018-09-24T16:35:08.472Z,102195.03
2018-09-24T16:40:11.591Z,102187.65
2018-09-24T16:45:14.899Z,102189.78
2018-09-24T16:50:17.900Z,102190.80
2018-09-24T16:55:21.791Z,102199.39
2018-09-24T17:00:24.805Z,102204.94
2018-09-24T17:05:27.851Z,102224.80
2018-09-24T17:10:30.815Z,102249.86
2018-09-24T17:15:34.024Z,102265.81
2018-09-24T17:20:37.027Z,102235.64
2018-09-24T17:25:40.100Z,102224.59
2018-09-24T17:30:43.744Z,102230.39
2018-09-24T17:35:46.880Z,102237.72
2018-09-24T17:40:50.539Z,102247.25
2018-09-24T17:45:54.575Z,102252.84
2018-09-24T17:50:57.756Z,102264.25
2018-09-24T17:56:03.136Z,102273.02
2018-09-24T18:01:07.063Z,102279.12
2018-09-24T18:06:10.913Z,102288.80
2018-09-24T18:11:16.418Z,102301.58
2018-09-24T18:16:20.339Z,102309.05
2018-09-24T18:21:26.268Z,102316.11
2018-09-24T18:26:31.096Z,102324.00
2018-09-24T18:31:35.504Z,102325.35
2018-09-24T18:36:39.531Z,102334.97
2018-09-24T18:41:43.373Z,102340.28
2018-09-24T18:46:47.867Z,102345.59
2018-09-24T18:51:51.948Z,102340.04
2018-09-24T18:56:56.976Z,102352.02
2018-09-24T19:02:02.608Z,102358.73
2018-09-24T19:07:08.145Z,102362.61
2018-09-24T19:12:11.771Z,102366.34
2018-09-24T19:17:16.054Z,102368.36
2018-09-24T19:22:19.472Z,102367.06
2018-09-24T19:27:24.036Z,102370.09
2018-09-24T19:32:27.907Z,102375.12
2018-09-24T19:37:32.050Z,102382.41
2018-09-24T19:42:36.401Z,102384.25
2018-09-24T19:47:40.518Z,102388.41
2018-09-24T19:52:44.674Z,102383.64
2018-09-24T19:57:49.027Z,102394.73
2018-09-24T20:02:53.277Z,102393.05
2018-09-24T20:07:58.565Z,102398.08
2018-09-24T20:13:02.988Z,102408.42
2018-09-24T20:18:07.453Z,102411.39
2018-09-24T20:23:11.943Z,102409.86
2018-09-24T20:28:16.574Z,102412.16
2018-09-24T20:33:20.732Z,102421.34
2018-09-24T20:38:25.141Z,102430.75
2018-09-24T20:43:32.233Z,102436.09
2018-09-24T20:48:37.550Z,102443.00
2018-09-24T20:53:42.281Z,102452.24
2018-09-24T20:58:46.706Z,102464.52
2018-09-24T21:03:50.902Z,102466.13
2018-09-24T21:08:55.284Z,102474.67
2018-09-24T21:13:59.885Z,102481.06
2018-09-24T21:19:04.749Z,102494.60
2018-09-24T21:24:09.166Z,102496.33
2018-09-24T21:29:14.045Z,102508.98
2018-09-24T21:34:18.481Z,102518.84
2018-09-24T21:39:22.795Z,102531.92
2018-09-24T21:44:28.701Z,102533.45
2018-09-24T21:49:33.198Z,102525.16
2018-09-24T21:54:38.311Z,102523.83
2018-09-24T21:59:43.125Z,102527.38
2018-09-24T22:04:54.453Z,102536.23
2018-09-24T22:10:00.017Z,102539.30
2018-09-24T22:15:03.761Z,102539.25
2018-09-24T22:20:07.619Z,102547.72
2018-09-24T22:25:11.358Z,102546.53
2018-09-24T22:30:15.046Z,102551.06
2018-09-24T22:35:18.902Z,102553.19
2018-09-24T22:40:22.624Z,102559.02
2018-09-24T22:45:26.448Z,102555.98
2018-09-24T22:50:30.208Z,102563.24
2018-09-24T22:55:33.981Z,102564.58
2018-09-24T23:00:37.621Z,102565.36
2018-09-24T23:05:41.520Z,102566.66
2018-09-24T23:10:45.277Z,102570.33
2018-09-24T23:15:49.226Z,102574.80
2018-09-24T23:20:53.002Z,102578.02
2018-09-24T23:25:56.878Z,102581.42
2018-09-24T23:31:00.859Z,102590.57
2018-09-24T23:36:04.491Z,102585.05
2018-09-24T23:41:08.341Z,102587.92
2018-09-24T23:46:12.201Z,102592.05
2018-09-24T23:51:16.148Z,102599.17
2018-09-24T23:56:19.953Z,102598.58
